Duruca — TCA3377 — position and weather

sailwx.info

Track history (hours):
 
Tides and Currents Weather Stations Pressure Air Temp Water Temp Dewpoint Dewpoint Depression Visibility Wind Speed Wind Dir Waves Ship Positions

Duruca

Last reported at 2018-Feb-16 18:24 UTC. Time now 2018-Feb-19 00:23 UTC.
Position N 37°18' E 024°46'.

Length 117 m; draft 5.2 m.

Type: Ship (hazmat cat A). MMSI: 271044033.

Date/timePositionNaut miles runAvg speedWind from/ knotsBaromVisibWave heightAir tempDewpointWater temp
2018-Feb-16 18:24N 37°18' E 024°46'410.2
2018-Feb-16 18:00N 37°19' E 024°51'510.7
2018-Feb-16 17:30N 37°20' E 024°57'611.2
2018-Feb-16 16:59N 37°24' E 025°03'510.5
2018-Feb-16 16:31N 37°26' E 025°09'611.6
2018-Feb-16 16:00N 37°29' E 025°15'611.0
2018-Feb-16 15:30N 37°33' E 025°20'8 7.4
2018-Feb-16 14:29N 37°38' E 025°27'511.0
2018-Feb-16 14:00N 37°42' E 025°32'510.8
2018-Feb-16 13:30N 37°45' E 025°37'  
2018-Feb-13 19:26N 43°33' E 028°45'510.8
2018-Feb-13 19:00N 43°38' E 028°46'511.0
2018-Feb-13 18:30N 43°44' E 028°46'611.0
2018-Feb-13 18:00N 43°49' E 028°47'611.0
2018-Feb-13 17:30N 43°55' E 028°47'510.7
2018-Feb-13 17:00N 43°60' E 028°47'611.0
2018-Feb-13 16:30N 44°05' E 028°43'4 8.5
2018-Feb-13 16:00N 44°09' E 028°40'1 2.3
2018-Feb-13 15:30N 44°09' E 028°39'0 0.0
2018-Feb-13 14:58N 44°09' E 028°39'0 0.0
2018-Feb-13 14:28N 44°09' E 028°39'0 0.0
2018-Feb-13 13:55N 44°09' E 028°39'0 0.0
2018-Feb-13 13:28N 44°09' E 028°39'0 0.0
2018-Feb-13 12:58N 44°09' E 028°39'0 0.0
2018-Feb-13 12:28N 44°09' E 028°39'0 0.0
2018-Feb-13 12:01N 44°09' E 028°39'0 0.0
2018-Feb-13 11:28N 44°09' E 028°39'0 0.0
2018-Feb-13 11:01N 44°09' E 028°39'0 0.0
2018-Feb-13 10:27N 44°09' E 028°39'0 0.0
2018-Feb-13 10:00N 44°09' E 028°39'0 0.0
2018-Feb-13 09:27N 44°09' E 028°39'0 0.0
2018-Feb-13 09:00N 44°09' E 028°39'0 0.0
2018-Feb-13 08:30N 44°09' E 028°39'0 0.0
2018-Feb-13 08:00N 44°09' E 028°39'0 0.0
2018-Feb-13 07:30N 44°09' E 028°39'0 0.0
2018-Feb-13 07:00N 44°09' E 028°39'0 0.0
2018-Feb-13 06:30N 44°09' E 028°39'0 0.0
2018-Feb-13 06:00N 44°09' E 028°39'0 0.0
2018-Feb-13 05:30N 44°09' E 028°39'0 0.0
2018-Feb-13 05:00N 44°09' E 028°39'0 0.0
2018-Feb-13 04:27N 44°09' E 028°39'0 0.0
2018-Feb-13 03:57N 44°09' E 028°39'0 0.0
2018-Feb-13 03:30N 44°09' E 028°39'0 0.0
2018-Feb-13 03:00N 44°09' E 028°39'0 0.0
2018-Feb-13 02:30N 44°09' E 028°39'0 0.0
2018-Feb-13 02:00N 44°09' E 028°39'0 0.0
2018-Feb-13 01:30N 44°09' E 028°39'0 0.0
2018-Feb-13 01:00N 44°09' E 028°39'0 0.0
2018-Feb-13 00:30N 44°09' E 028°39'0 0.0
2018-Feb-13 00:00N 44°09' E 028°39'0 0.0
2018-Feb-12 23:30N 44°09' E 028°39'0 0.0
2018-Feb-12 23:00N 44°09' E 028°39'0 0.0
2018-Feb-12 22:30N 44°09' E 028°39'0 0.0
2018-Feb-12 22:00N 44°09' E 028°39'0 0.0
2018-Feb-12 21:30N 44°09' E 028°39'0 0.0
2018-Feb-12 21:00N 44°09' E 028°39'0 0.0
2018-Feb-12 20:30N 44°09' E 028°39'0 0.0
2018-Feb-12 20:00N 44°09' E 028°39'0 0.0
2018-Feb-12 19:30N 44°09' E 028°39'0 0.0
2018-Feb-12 19:00N 44°09' E 028°39'0 0.0
2018-Feb-12 18:30N 44°09' E 028°39'0 0.0
2018-Feb-12 18:00N 44°09' E 028°39'0 0.0
2018-Feb-12 17:30N 44°09' E 028°39'0 0.0
2018-Feb-12 17:00N 44°09' E 028°39'0 0.0
2018-Feb-12 16:30N 44°09' E 028°39'0 0.0
2018-Feb-12 16:00N 44°09' E 028°39'0 0.0
2018-Feb-12 15:18N 44°09' E 028°39'0 0.0
2018-Feb-12 15:00N 44°09' E 028°39'0 0.0
2018-Feb-12 14:24N 44°09' E 028°39'0 0.0
2018-Feb-12 14:00N 44°09' E 028°39'0 0.0
2018-Feb-12 13:30N 44°09' E 028°39'0 0.0
2018-Feb-12 13:00N 44°09' E 028°39'0 0.0
2018-Feb-12 12:30N 44°09' E 028°39'0 0.0
2018-Feb-12 12:00N 44°09' E 028°39'0 0.0
2018-Feb-12 11:30N 44°09' E 028°39'0 0.0
2018-Feb-12 11:00N 44°09' E 028°39'0 0.0
2018-Feb-12 10:30N 44°09' E 028°39'1 1.9
2018-Feb-12 10:00N 44°09' E 028°40'3 5.2
2018-Feb-12 09:31N 44°07' E 028°42'4 8.2
2018-Feb-12 09:01N 44°04' E 028°45'510.6
2018-Feb-12 08:30N 43°59' E 028°49'5 9.7
2018-Feb-12 08:00N 43°54' E 028°50'5 9.6
2018-Feb-12 07:30N 43°49' E 028°50'5 9.4
2018-Feb-12 07:01N 43°45' E 028°49'5 9.8
2018-Feb-12 06:30N 43°40' E 028°47'5 9.7
2018-Feb-12 06:01N 43°36' E 028°44'  
Track history (hours):
 
Tides and Currents Weather Stations Pressure Air Temp Water Temp Dewpoint Dewpoint Depression Visibility Wind Speed Wind Dir Waves Ship Positions

Duruca

Last reported at 2018-Feb-16 18:24 UTC. Time now 2018-Feb-19 00:23 UTC.
Position N 37°18' E 024°46'.

Length 117 m; draft 5.2 m.

Type: Ship (hazmat cat A). MMSI: 271044033.

Date/timePositionNaut miles runAvg speedWind from/ knotsBaromVisibWave heightAir tempDewpointWater temp
2018-Feb-16 18:24N 37°18' E 024°46'410.2
2018-Feb-16 18:00N 37°19' E 024°51'510.7
2018-Feb-16 17:30N 37°20' E 024°57'611.2
2018-Feb-16 16:59N 37°24' E 025°03'510.5
2018-Feb-16 16:31N 37°26' E 025°09'611.6
2018-Feb-16 16:00N 37°29' E 025°15'611.0
2018-Feb-16 15:30N 37°33' E 025°20'8 7.4
2018-Feb-16 14:29N 37°38' E 025°27'511.0
2018-Feb-16 14:00N 37°42' E 025°32'510.8
2018-Feb-16 13:30N 37°45' E 025°37'  
2018-Feb-13 19:26N 43°33' E 028°45'510.8
2018-Feb-13 19:00N 43°38' E 028°46'511.0
2018-Feb-13 18:30N 43°44' E 028°46'611.0
2018-Feb-13 18:00N 43°49' E 028°47'611.0
2018-Feb-13 17:30N 43°55' E 028°47'510.7
2018-Feb-13 17:00N 43°60' E 028°47'611.0
2018-Feb-13 16:30N 44°05' E 028°43'4 8.5
2018-Feb-13 16:00N 44°09' E 028°40'1 2.3
2018-Feb-13 15:30N 44°09' E 028°39'0 0.0
2018-Feb-13 14:58N 44°09' E 028°39'0 0.0
2018-Feb-13 14:28N 44°09' E 028°39'0 0.0
2018-Feb-13 13:55N 44°09' E 028°39'0 0.0
2018-Feb-13 13:28N 44°09' E 028°39'0 0.0
2018-Feb-13 12:58N 44°09' E 028°39'0 0.0
2018-Feb-13 12:28N 44°09' E 028°39'0 0.0
2018-Feb-13 12:01N 44°09' E 028°39'0 0.0
2018-Feb-13 11:28N 44°09' E 028°39'0 0.0
2018-Feb-13 11:01N 44°09' E 028°39'0 0.0
2018-Feb-13 10:27N 44°09' E 028°39'0 0.0
2018-Feb-13 10:00N 44°09' E 028°39'0 0.0
2018-Feb-13 09:27N 44°09' E 028°39'0 0.0
2018-Feb-13 09:00N 44°09' E 028°39'0 0.0
2018-Feb-13 08:30N 44°09' E 028°39'0 0.0
2018-Feb-13 08:00N 44°09' E 028°39'0 0.0
2018-Feb-13 07:30N 44°09' E 028°39'0 0.0
2018-Feb-13 07:00N 44°09' E 028°39'0 0.0
2018-Feb-13 06:30N 44°09' E 028°39'0 0.0
2018-Feb-13 06:00N 44°09' E 028°39'0 0.0
2018-Feb-13 05:30N 44°09' E 028°39'0 0.0
2018-Feb-13 05:00N 44°09' E 028°39'0 0.0
2018-Feb-13 04:27N 44°09' E 028°39'0 0.0
2018-Feb-13 03:57N 44°09' E 028°39'0 0.0
2018-Feb-13 03:30N 44°09' E 028°39'0 0.0
2018-Feb-13 03:00N 44°09' E 028°39'0 0.0
2018-Feb-13 02:30N 44°09' E 028°39'0 0.0
2018-Feb-13 02:00N 44°09' E 028°39'0 0.0
2018-Feb-13 01:30N 44°09' E 028°39'0 0.0
2018-Feb-13 01:00N 44°09' E 028°39'0 0.0
2018-Feb-13 00:30N 44°09' E 028°39'0 0.0
2018-Feb-13 00:00N 44°09' E 028°39'0 0.0
2018-Feb-12 23:30N 44°09' E 028°39'0 0.0
2018-Feb-12 23:00N 44°09' E 028°39'0 0.0
2018-Feb-12 22:30N 44°09' E 028°39'0 0.0
2018-Feb-12 22:00N 44°09' E 028°39'0 0.0
2018-Feb-12 21:30N 44°09' E 028°39'0 0.0
2018-Feb-12 21:00N 44°09' E 028°39'0 0.0
2018-Feb-12 20:30N 44°09' E 028°39'0 0.0
2018-Feb-12 20:00N 44°09' E 028°39'0 0.0
2018-Feb-12 19:30N 44°09' E 028°39'0 0.0
2018-Feb-12 19:00N 44°09' E 028°39'0 0.0
2018-Feb-12 18:30N 44°09' E 028°39'0 0.0
2018-Feb-12 18:00N 44°09' E 028°39'0 0.0
2018-Feb-12 17:30N 44°09' E 028°39'0 0.0
2018-Feb-12 17:00N 44°09' E 028°39'0 0.0
2018-Feb-12 16:30N 44°09' E 028°39'0 0.0
2018-Feb-12 16:00N 44°09' E 028°39'0 0.0
2018-Feb-12 15:18N 44°09' E 028°39'0 0.0
2018-Feb-12 15:00N 44°09' E 028°39'0 0.0
2018-Feb-12 14:24N 44°09' E 028°39'0 0.0
2018-Feb-12 14:00N 44°09' E 028°39'0 0.0
2018-Feb-12 13:30N 44°09' E 028°39'0 0.0
2018-Feb-12 13:00N 44°09' E 028°39'0 0.0
2018-Feb-12 12:30N 44°09' E 028°39'0 0.0
2018-Feb-12 12:00N 44°09' E 028°39'0 0.0
2018-Feb-12 11:30N 44°09' E 028°39'0 0.0
2018-Feb-12 11:00N 44°09' E 028°39'0 0.0
2018-Feb-12 10:30N 44°09' E 028°39'1 1.9
2018-Feb-12 10:00N 44°09' E 028°40'3 5.2
2018-Feb-12 09:31N 44°07' E 028°42'4 8.2
2018-Feb-12 09:01N 44°04' E 028°45'510.6
2018-Feb-12 08:30N 43°59' E 028°49'5 9.7
2018-Feb-12 08:00N 43°54' E 028°50'5 9.6
2018-Feb-12 07:30N 43°49' E 028°50'5 9.4
2018-Feb-12 07:01N 43°45' E 028°49'5 9.8
2018-Feb-12 06:30N 43°40' E 028°47'5 9.7
2018-Feb-12 06:01N 43°36' E 028°44'  

Dump ship's entire track history